createdAt,value
2019-01-30T00:04:10.707Z,15.14
2019-01-30T00:10:05.702Z,18.29
2019-01-30T00:16:00.698Z,15.31
2019-01-30T00:21:55.686Z,14.05
2019-01-30T00:27:50.674Z,13.88
2019-01-30T00:33:46.081Z,15.03
2019-01-30T00:39:40.710Z,14.9
2019-01-30T00:45:35.692Z,12.46
2019-01-30T00:51:30.707Z,13.33
2019-01-30T00:57:25.765Z,12.17
2019-01-30T01:03:20.717Z,13.82
2019-01-30T01:09:15.750Z,13.8
2019-01-30T01:15:10.755Z,12.78
2019-01-30T01:21:05.707Z,11.52
2019-01-30T01:27:00.753Z,12.9
2019-01-30T01:32:55.755Z,14.71
2019-01-30T01:38:50.769Z,18.74
2019-01-30T01:44:45.731Z,11.41
2019-01-30T01:50:40.770Z,13.18
2019-01-30T01:56:35.739Z,11.77
2019-01-30T02:02:30.786Z,17.88
2019-01-30T02:08:25.804Z,13.3
2019-01-30T02:14:20.761Z,12.7
2019-01-30T02:20:15.817Z,13
2019-01-30T02:32:05.805Z,16.35
2019-01-30T02:32:05.825Z,12.12
2019-01-30T02:38:00.790Z,11.53
2019-01-30T02:43:55.789Z,11.36
2019-01-30T02:49:51.077Z,12.98
2019-01-30T02:55:45.791Z,10.61
2019-01-30T03:01:40.796Z,10.43
2019-01-30T03:07:35.797Z,9.9
2019-01-30T03:13:30.849Z,12.85
2019-01-30T03:19:25.804Z,8.74
2019-01-30T03:25:20.821Z,8.45
2019-01-30T03:31:18.152Z,14.44
2019-01-30T03:37:10.812Z,11.39
2019-01-30T03:43:05.818Z,11.84
2019-01-30T03:49:00.902Z,11
2019-01-30T03:54:55.834Z,9.78
2019-01-30T04:00:50.812Z,10.28
2019-01-30T04:06:46.156Z,9.93
2019-01-30T04:12:40.807Z,9.85
2019-01-30T04:18:35.839Z,11.22
2019-01-30T04:24:30.830Z,8.68
2019-01-30T04:30:25.825Z,7.31
2019-01-30T04:36:20.837Z,10.41
2019-01-30T04:42:15.890Z,7.82
2019-01-30T04:48:10.911Z,7.78
2019-01-30T04:54:05.853Z,11.7
2019-01-30T05:00:00.858Z,7.22
2019-01-30T05:05:55.853Z,9.79
2019-01-30T05:11:50.857Z,9.23
2019-01-30T05:17:46.148Z,8.48
2019-01-30T05:23:40.843Z,9.23
2019-01-30T05:29:35.958Z,9.12
2019-01-30T05:35:30.869Z,12.03
2019-01-30T05:41:25.928Z,9.85
2019-01-30T05:47:20.865Z,8.04
2019-01-30T05:53:15.885Z,8.58
2019-01-30T05:59:10.880Z,7.77
2019-01-30T06:05:05.873Z,10.09
2019-01-30T06:11:00.891Z,7.68
2019-01-30T06:16:55.882Z,7.02
2019-01-30T06:22:50.869Z,7.5
2019-01-30T06:28:45.975Z,10.29
2019-01-30T06:34:40.903Z,10.85
2019-01-30T06:40:35.906Z,12.86
2019-01-30T06:46:30.901Z,14.46
2019-01-30T06:52:25.951Z,10.98
2019-01-30T06:58:20.899Z,11.11
2019-01-30T07:04:15.908Z,9.8
2019-01-30T07:10:10.905Z,13.3
2019-01-30T07:16:05.920Z,13.07
2019-01-30T07:22:00.912Z,8.67
2019-01-30T07:27:55.924Z,7.36
2019-01-30T07:33:50.964Z,10.49
2019-01-30T07:39:46.290Z,15.09
2019-01-30T07:45:40.926Z,14.77
2019-01-30T07:51:35.933Z,10.43
2019-01-30T07:57:30.944Z,11.28
2019-01-30T08:03:25.978Z,12.58
2019-01-30T08:09:20.975Z,10.74
2019-01-30T08:15:15.985Z,11.48
2019-01-30T08:21:10.921Z,13.76
2019-01-30T08:27:06.317Z,7.63
2019-01-30T08:33:04.396Z,8.23
2019-01-30T08:38:55.951Z,9.26
2019-01-30T08:50:45.993Z,10.58
2019-01-30T08:50:46.002Z,10.58
2019-01-30T08:56:52.272Z,6.35
2019-01-30T09:02:35.998Z,8.27
2019-01-30T09:08:30.972Z,10.39
2019-01-30T09:14:25.987Z,10.67
2019-01-30T09:20:20.975Z,10.33
2019-01-30T09:26:15.972Z,18.89
2019-01-30T09:32:11.047Z,14.6
2019-01-30T09:38:06.131Z,17.1
2019-01-30T09:44:01.019Z,12.97
2019-01-30T09:49:56.021Z,15.04
2019-01-30T09:55:51.006Z,11.79
2019-01-30T10:01:46.301Z,10.31
2019-01-30T10:07:41.001Z,9.97
2019-01-30T10:13:37.450Z,7.28
2019-01-30T10:19:31.015Z,5.63
2019-01-30T10:25:26.042Z,10.17
2019-01-30T10:31:21.073Z,10.93
2019-01-30T10:37:16.053Z,7.03
2019-01-30T10:43:11.035Z,13.22
2019-01-30T10:49:06.043Z,22.2
2019-01-30T10:55:01.043Z,10.83
2019-01-30T11:00:56.028Z,10.73
2019-01-30T11:06:51.346Z,3.54
2019-01-30T11:12:46.353Z,4.69
2019-01-30T11:18:41.083Z,6.13
2019-01-30T11:30:31.064Z,5.97
2019-01-30T11:30:31.090Z,10.37
2019-01-30T11:36:26.058Z,7.27
2019-01-30T11:42:21.061Z,10.01
2019-01-30T11:48:16.056Z,11.41
2019-01-30T11:54:11.096Z,11.31
2019-01-30T12:00:06.094Z,10.66
2019-01-30T12:06:01.083Z,11.33
2019-01-30T12:11:56.061Z,11.4
2019-01-30T12:17:51.278Z,9.99
2019-01-30T12:23:46.411Z,10.87
2019-01-30T12:29:41.085Z,13.44
2019-01-30T12:35:36.081Z,9.84
2019-01-30T12:41:31.164Z,12.39
2019-01-30T12:47:26.087Z,10.83
2019-01-30T12:53:21.104Z,13.11
2019-01-30T12:59:16.114Z,11.49
2019-01-30T13:05:11.148Z,10.93
2019-01-30T13:17:01.126Z,11.19
2019-01-30T13:17:01.140Z,12.37
2019-01-30T13:22:56.206Z,13.68
2019-01-30T13:28:51.149Z,11.91
2019-01-30T13:34:48.853Z,12.42
2019-01-30T13:40:41.193Z,14.58
2019-01-30T13:46:36.117Z,13.33
2019-01-30T13:52:31.143Z,17.53
2019-01-30T13:58:26.138Z,9.83
2019-01-30T14:04:21.183Z,10.68
2019-01-30T14:10:16.141Z,9.57
2019-01-30T14:16:11.184Z,7.2
2019-01-30T14:22:06.152Z,10.76
2019-01-30T14:28:01.211Z,15.25
2019-01-30T14:33:56.449Z,8.11
2019-01-30T14:39:51.860Z,4.99
2019-01-30T14:45:46.152Z,5.2
2019-01-30T14:51:41.192Z,4.3
2019-01-30T14:57:36.198Z,4.76
2019-01-30T15:03:31.202Z,4.64
2019-01-30T15:09:26.195Z,7.04
2019-01-30T15:15:21.183Z,7.49
2019-01-30T15:21:16.173Z,6.21
2019-01-30T15:27:11.186Z,5.51
2019-01-30T15:33:06.187Z,2.97
2019-01-30T15:39:01.197Z,5.9
2019-01-30T15:44:56.213Z,3.18
2019-01-30T15:50:51.493Z,5.21
2019-01-30T15:56:46.179Z,5.36
2019-01-30T16:02:41.207Z,8.44
2019-01-30T16:08:36.209Z,13.75
2019-01-30T16:14:31.236Z,8.56
2019-01-30T16:20:26.226Z,6.54
2019-01-30T16:26:21.243Z,6.15
2019-01-30T16:32:16.241Z,5.9
2019-01-30T16:38:11.211Z,4.8
2019-01-30T16:44:06.252Z,3.33
2019-01-30T16:50:01.233Z,6.43
2019-01-30T16:55:56.252Z,5.62
2019-01-30T17:01:51.548Z,3.87
2019-01-30T17:07:46.251Z,15.07
2019-01-30T17:13:41.231Z,12.88
2019-01-30T17:19:36.253Z,7.31
2019-01-30T17:25:31.250Z,8.78
2019-01-30T17:31:26.256Z,7.19
2019-01-30T17:37:21.252Z,9.5
2019-01-30T17:43:16.273Z,10.5
2019-01-30T17:49:11.275Z,10.02
2019-01-30T17:55:06.266Z,14.1
2019-01-30T18:01:01.268Z,13.25
2019-01-30T18:06:56.266Z,12.46
2019-01-30T18:12:51.268Z,14.76
2019-01-30T18:18:46.304Z,18.54
2019-01-30T18:24:41.274Z,14.07
2019-01-30T18:30:36.294Z,8.25
2019-01-30T18:36:40.579Z,9.53
2019-01-30T18:42:26.307Z,12.27
2019-01-30T18:48:21.297Z,13.01
2019-01-30T18:54:16.344Z,11.02
2019-01-30T19:00:11.349Z,10.8
2019-01-30T19:06:06.298Z,15.5
2019-01-30T19:12:01.311Z,10.51
2019-01-30T19:17:56.316Z,11.29
2019-01-30T19:23:51.352Z,11.47
2019-01-30T19:29:46.310Z,10.25
2019-01-30T19:35:41.323Z,17.49
2019-01-30T19:41:36.315Z,11.19
2019-01-30T19:47:31.319Z,11.31
2019-01-30T19:53:26.339Z,12.81
2019-01-30T19:59:21.327Z,13.37
2019-01-30T20:05:16.311Z,13.57
2019-01-30T20:11:11.372Z,13.37
2019-01-30T20:17:06.370Z,11.89
2019-01-30T20:23:01.348Z,11.93
2019-01-30T20:28:56.357Z,14.8
2019-01-30T20:34:51.660Z,15.32
2019-01-30T20:40:46.360Z,15.8
2019-01-30T20:46:41.361Z,18.23
2019-01-30T20:52:36.405Z,17.1
2019-01-30T20:58:31.505Z,17.52
2019-01-30T21:04:26.358Z,15.81
2019-01-30T21:10:21.401Z,16.57
2019-01-30T21:16:16.384Z,15.7
2019-01-30T21:22:11.386Z,19.59
2019-01-30T21:28:06.394Z,15.12
2019-01-30T21:34:01.398Z,19.2
2019-01-30T21:39:56.471Z,15.9
2019-01-30T21:45:51.591Z,20.17
2019-01-30T21:51:46.425Z,17.3
2019-01-30T21:57:41.426Z,19.11
2019-01-30T22:03:36.417Z,16.49
2019-01-30T22:09:31.421Z,15.9
2019-01-30T22:15:26.420Z,12.79
2019-01-30T22:21:21.416Z,18.23
2019-01-30T22:27:16.420Z,19.74
2019-01-30T22:33:11.422Z,20.69
2019-01-30T22:39:06.429Z,19.59
2019-01-30T22:45:01.514Z,20.08
2019-01-30T22:50:56.413Z,24
2019-01-30T22:56:51.721Z,21.93
2019-01-30T23:02:46.437Z,22.57
2019-01-30T23:08:41.442Z,21.6
2019-01-30T23:14:36.438Z,22.4
2019-01-30T23:20:31.451Z,22.77
2019-01-30T23:26:26.466Z,30.11
2019-01-30T23:32:21.445Z,23.9
2019-01-30T23:38:16.473Z,19.98
2019-01-30T23:44:11.460Z,17.97
2019-01-30T23:50:06.455Z,21.1
2019-01-30T23:56:01.480Z,21.79
